sensor_id;sensor_type;location;lat;lon;timestamp;pressure;altitude;pressure_sealevel;temperature;humidity
10921;BME280;5513;50.580;8.818;2023-03-14T00:00:16;97067.13;;;10.60;100.00
10921;BME280;5513;50.580;8.818;2023-03-14T00:02:45;97067.59;;;10.56;100.00
10921;BME280;5513;50.580;8.818;2023-03-14T00:05:13;97081.66;;;10.56;100.00
10921;BME280;5513;50.580;8.818;2023-03-14T00:07:47;97095.81;;;10.65;100.00
10921;BME280;5513;50.580;8.818;2023-03-14T00:10:16;97089.00;;;10.63;100.00
10921;BME280;5513;50.580;8.818;2023-03-14T00:12:45;97079.09;;;10.65;100.00
10921;BME280;5513;50.580;8.818;2023-03-14T00:15:16;97067.53;;;10.66;100.00
10921;BME280;5513;50.580;8.818;2023-03-14T00:17:45;97060.81;;;10.71;100.00
10921;BME280;5513;50.580;8.818;2023-03-14T00:20:15;97070.00;;;10.67;100.00
10921;BME280;5513;50.580;8.818;2023-03-14T00:22:47;97068.19;;;10.68;100.00
10921;BME280;5513;50.580;8.818;2023-03-14T00:25:16;97072.22;;;10.72;100.00
10921;BME280;5513;50.580;8.818;2023-03-14T00:27:44;97080.03;;;10.73;100.00
10921;BME280;5513;50.580;8.818;2023-03-14T00:30:14;97084.69;;;10.79;100.00
10921;BME280;5513;50.580;8.818;2023-03-14T00:32:42;97088.38;;;10.69;100.00
10921;BME280;5513;50.580;8.818;2023-03-14T00:35:11;97071.31;;;10.63;100.00
10921;BME280;5513;50.580;8.818;2023-03-14T00:37:41;97084.47;;;10.73;100.00
10921;BME280;5513;50.580;8.818;2023-03-14T00:40:12;97071.53;;;10.70;100.00
10921;BME280;5513;50.580;8.818;2023-03-14T00:42:41;97085.47;;;10.72;100.00
10921;BME280;5513;50.580;8.818;2023-03-14T00:45:12;97082.03;;;10.79;100.00
10921;BME280;5513;50.580;8.818;2023-03-14T00:47:40;97080.38;;;10.78;100.00
10921;BME280;5513;50.580;8.818;2023-03-14T00:50:13;97080.78;;;10.83;100.00
10921;BME280;5513;50.580;8.818;2023-03-14T00:52:41;97082.34;;;10.76;100.00
10921;BME280;5513;50.580;8.818;2023-03-14T00:55:11;97080.25;;;10.62;100.00
10921;BME280;5513;50.580;8.818;2023-03-14T00:57:40;97067.44;;;10.57;100.00
10921;BME280;5513;50.580;8.818;2023-03-14T01:00:09;97074.38;;;10.58;100.00
10921;BME280;5513;50.580;8.818;2023-03-14T01:02:39;97064.88;;;10.66;100.00
10921;BME280;5513;50.580;8.818;2023-03-14T01:05:08;97050.66;;;10.67;100.00
10921;BME280;5513;50.580;8.818;2023-03-14T01:07:38;97021.59;;;10.57;100.00
10921;BME280;5513;50.580;8.818;2023-03-14T01:10:08;97011.19;;;10.55;100.00
10921;BME280;5513;50.580;8.818;2023-03-14T01:12:38;96996.13;;;10.56;100.00
10921;BME280;5513;50.580;8.818;2023-03-14T01:15:08;96988.94;;;10.48;100.00
10921;BME280;5513;50.580;8.818;2023-03-14T01:17:37;97006.31;;;10.51;100.00
10921;BME280;5513;50.580;8.818;2023-03-14T01:20:09;97011.25;;;10.46;100.00
10921;BME280;5513;50.580;8.818;2023-03-14T01:22:39;97011.56;;;10.43;100.00
10921;BME280;5513;50.580;8.818;2023-03-14T01:25:10;97012.47;;;10.34;100.00
10921;BME280;5513;50.580;8.818;2023-03-14T01:27:40;97015.63;;;10.37;100.00
10921;BME280;5513;50.580;8.818;2023-03-14T01:30:11;97016.59;;;10.36;100.00
10921;BME280;5513;50.580;8.818;2023-03-14T01:32:39;97021.06;;;10.36;100.00
10921;BME280;5513;50.580;8.818;2023-03-14T01:35:09;97034.31;;;10.36;100.00
10921;BME280;5513;50.580;8.818;2023-03-14T01:37:37;97057.56;;;10.32;100.00
10921;BME280;5513;50.580;8.818;2023-03-14T01:40:08;97038.44;;;10.38;100.00
10921;BME280;5513;50.580;8.818;2023-03-14T01:42:54;97024.91;;;10.41;100.00
10921;BME280;5513;50.580;8.818;2023-03-14T01:48:34;97019.63;;;10.41;100.00
10921;BME280;5513;50.580;8.818;2023-03-14T01:51:05;97026.72;;;10.41;100.00
10921;BME280;5513;50.580;8.818;2023-03-14T01:53:38;97025.97;;;10.30;100.00
10921;BME280;5513;50.580;8.818;2023-03-14T01:56:08;97017.19;;;10.30;100.00
10921;BME280;5513;50.580;8.818;2023-03-14T01:58:42;97010.41;;;10.27;100.00
10921;BME280;5513;50.580;8.818;2023-03-14T02:01:14;97000.38;;;10.21;100.00
10921;BME280;5513;50.580;8.818;2023-03-14T02:03:47;97009.16;;;10.22;100.00
10921;BME280;5513;50.580;8.818;2023-03-14T02:06:19;96995.06;;;10.21;100.00
10921;BME280;5513;50.580;8.818;2023-03-14T02:08:49;97004.16;;;10.19;100.00
10921;BME280;5513;50.580;8.818;2023-03-14T02:11:18;96988.44;;;10.17;100.00
10921;BME280;5513;50.580;8.818;2023-03-14T02:13:48;96977.41;;;10.22;100.00
10921;BME280;5513;50.580;8.818;2023-03-14T02:16:25;96987.13;;;10.21;100.00
10921;BME280;5513;50.580;8.818;2023-03-14T02:18:53;96982.44;;;10.25;100.00
10921;BME280;5513;50.580;8.818;2023-03-14T02:21:27;96983.09;;;10.27;100.00
10921;BME280;5513;50.580;8.818;2023-03-14T02:24:08;96988.00;;;10.22;100.00
10921;BME280;5513;50.580;8.818;2023-03-14T02:26:43;96987.13;;;10.21;100.00
10921;BME280;5513;50.580;8.818;2023-03-14T02:29:15;96987.28;;;10.20;100.00
10921;BME280;5513;50.580;8.818;2023-03-14T02:31:44;96979.00;;;10.15;100.00
10921;BME280;5513;50.580;8.818;2023-03-14T02:34:12;96975.16;;;10.27;100.00
10921;BME280;5513;50.580;8.818;2023-03-14T02:36:41;96976.84;;;10.28;100.00
10921;BME280;5513;50.580;8.818;2023-03-14T02:39:14;96970.06;;;10.16;100.00
10921;BME280;5513;50.580;8.818;2023-03-14T02:41:46;96970.44;;;10.21;100.00
10921;BME280;5513;50.580;8.818;2023-03-14T02:44:17;96945.13;;;10.18;100.00
10921;BME280;5513;50.580;8.818;2023-03-14T02:46:45;96945.88;;;10.11;100.00
10921;BME280;5513;50.580;8.818;2023-03-14T02:49:15;96942.78;;;10.15;100.00
10921;BME280;5513;50.580;8.818;2023-03-14T02:51:45;96940.66;;;10.19;100.00
10921;BME280;5513;50.580;8.818;2023-03-14T02:54:14;96941.34;;;10.21;100.00
10921;BME280;5513;50.580;8.818;2023-03-14T02:56:43;96925.94;;;10.16;100.00
10921;BME280;5513;50.580;8.818;2023-03-14T02:59:11;96932.16;;;10.25;100.00
10921;BME280;5513;50.580;8.818;2023-03-14T03:01:44;96938.03;;;10.19;100.00
10921;BME280;5513;50.580;8.818;2023-03-14T03:04:12;96939.41;;;10.23;100.00
10921;BME280;5513;50.580;8.818;2023-03-14T03:06:41;96931.19;;;10.26;100.00
10921;BME280;5513;50.580;8.818;2023-03-14T03:09:13;96931.25;;;10.34;100.00
10921;BME280;5513;50.580;8.818;2023-03-14T03:11:42;96930.28;;;10.35;100.00
10921;BME280;5513;50.580;8.818;2023-03-14T03:14:10;96933.09;;;10.34;100.00
10921;BME280;5513;50.580;8.818;2023-03-14T03:16:38;96911.22;;;10.31;100.00
10921;BME280;5513;50.580;8.818;2023-03-14T03:19:08;96914.69;;;10.32;100.00
10921;BME280;5513;50.580;8.818;2023-03-14T03:21:36;96917.22;;;10.34;100.00
10921;BME280;5513;50.580;8.818;2023-03-14T03:24:05;96911.22;;;10.31;100.00
10921;BME280;5513;50.580;8.818;2023-03-14T03:26:34;96901.16;;;10.17;100.00
10921;BME280;5513;50.580;8.818;2023-03-14T03:29:02;96915.00;;;10.29;100.00
10921;BME280;5513;50.580;8.818;2023-03-14T03:31:31;96927.44;;;10.19;100.00
10921;BME280;5513;50.580;8.818;2023-03-14T03:34:00;96938.75;;;10.11;100.00
10921;BME280;5513;50.580;8.818;2023-03-14T03:36:34;96920.16;;;10.03;100.00
10921;BME280;5513;50.580;8.818;2023-03-14T03:39:04;96934.38;;;10.02;100.00
10921;BME280;5513;50.580;8.818;2023-03-14T03:41:33;96926.53;;;10.10;100.00
10921;BME280;5513;50.580;8.818;2023-03-14T03:44:01;96908.00;;;10.10;100.00
10921;BME280;5513;50.580;8.818;2023-03-14T03:46:29;96899.31;;;10.00;100.00
10921;BME280;5513;50.580;8.818;2023-03-14T03:48:59;96906.94;;;9.85;100.00
10921;BME280;5513;50.580;8.818;2023-03-14T03:51:28;96908.22;;;9.81;100.00
10921;BME280;5513;50.580;8.818;2023-03-14T03:53:59;96903.00;;;9.71;100.00
10921;BME280;5513;50.580;8.818;2023-03-14T03:56:33;96907.53;;;9.79;100.00
10921;BME280;5513;50.580;8.818;2023-03-14T03:59:10;96914.78;;;9.77;100.00
10921;BME280;5513;50.580;8.818;2023-03-14T04:01:39;96908.88;;;9.65;100.00
10921;BME280;5513;50.580;8.818;2023-03-14T04:04:08;96899.00;;;9.67;100.00
10921;BME280;5513;50.580;8.818;2023-03-14T04:06:36;96903.28;;;9.68;100.00
10921;BME280;5513;50.580;8.818;2023-03-14T04:09:08;96901.78;;;9.66;100.00
10921;BME280;5513;50.580;8.818;2023-03-14T04:11:37;96888.78;;;9.72;100.00
10921;BME280;5513;50.580;8.818;2023-03-14T04:14:05;96885.63;;;9.69;100.00
10921;BME280;5513;50.580;8.818;2023-03-14T04:16:34;96872.56;;;9.67;100.00
10921;BME280;5513;50.580;8.818;2023-03-14T04:19:03;96866.81;;;9.72;100.00
10921;BME280;5513;50.580;8.818;2023-03-14T04:21:31;96866.53;;;9.75;100.00
10921;BME280;5513;50.580;8.818;2023-03-14T04:24:01;96850.59;;;9.67;100.00
10921;BME280;5513;50.580;8.818;2023-03-14T04:26:31;96859.09;;;9.61;100.00
10921;BME280;5513;50.580;8.818;2023-03-14T04:29:01;96856.47;;;9.61;100.00
10921;BME280;5513;50.580;8.818;2023-03-14T04:31:30;96863.31;;;9.54;100.00
10921;BME280;5513;50.580;8.818;2023-03-14T04:33:59;96865.22;;;9.34;100.00
10921;BME280;5513;50.580;8.818;2023-03-14T04:36:27;96866.72;;;9.46;100.00
10921;BME280;5513;50.580;8.818;2023-03-14T04:38:56;96865.22;;;9.61;100.00
10921;BME280;5513;50.580;8.818;2023-03-14T04:41:24;96862.34;;;9.72;100.00
10921;BME280;5513;50.580;8.818;2023-03-14T04:43:55;96873.31;;;9.78;100.00
10921;BME280;5513;50.580;8.818;2023-03-14T04:46:24;96856.63;;;9.77;100.00
10921;BME280;5513;50.580;8.818;2023-03-14T04:48:52;96854.44;;;9.90;100.00
10921;BME280;5513;50.580;8.818;2023-03-14T04:51:23;96843.63;;;9.84;100.00
10921;BME280;5513;50.580;8.818;2023-03-14T04:53:54;96847.56;;;9.97;100.00
10921;BME280;5513;50.580;8.818;2023-03-14T04:56:22;96853.03;;;9.96;100.00
10921;BME280;5513;50.580;8.818;2023-03-14T04:58:51;96847.25;;;10.00;100.00
10921;BME280;5513;50.580;8.818;2023-03-14T05:01:21;96844.31;;;10.03;100.00
10921;BME280;5513;50.580;8.818;2023-03-14T05:03:50;96844.22;;;10.13;100.00
10921;BME280;5513;50.580;8.818;2023-03-14T05:06:18;96830.66;;;10.26;100.00
10921;BME280;5513;50.580;8.818;2023-03-14T05:08:46;96824.91;;;10.30;100.00
10921;BME280;5513;50.580;8.818;2023-03-14T05:11:15;96821.06;;;10.25;100.00
10921;BME280;5513;50.580;8.818;2023-03-14T05:13:43;96823.56;;;10.26;100.00
10921;BME280;5513;50.580;8.818;2023-03-14T05:16:12;96820.06;;;10.26;100.00
10921;BME280;5513;50.580;8.818;2023-03-14T05:18:43;96826.56;;;10.31;100.00
10921;BME280;5513;50.580;8.818;2023-03-14T05:21:11;96834.38;;;10.33;100.00
10921;BME280;5513;50.580;8.818;2023-03-14T05:23:39;96829.22;;;10.14;100.00
10921;BME280;5513;50.580;8.818;2023-03-14T05:26:08;96848.53;;;10.32;100.00
10921;BME280;5513;50.580;8.818;2023-03-14T05:28:37;96836.69;;;10.18;100.00
10921;BME280;5513;50.580;8.818;2023-03-14T05:31:07;96829.91;;;10.34;100.00
10921;BME280;5513;50.580;8.818;2023-03-14T05:33:36;96831.72;;;10.33;100.00
10921;BME280;5513;50.580;8.818;2023-03-14T05:36:09;96823.97;;;10.40;100.00
10921;BME280;5513;50.580;8.818;2023-03-14T05:38:38;96818.31;;;10.35;100.00
10921;BME280;5513;50.580;8.818;2023-03-14T05:41:07;96827.09;;;10.35;100.00
10921;BME280;5513;50.580;8.818;2023-03-14T05:43:35;96811.06;;;10.19;100.00
10921;BME280;5513;50.580;8.818;2023-03-14T05:46:04;96803.94;;;10.19;100.00
10921;BME280;5513;50.580;8.818;2023-03-14T05:48:32;96804.03;;;10.10;100.00
10921;BME280;5513;50.580;8.818;2023-03-14T05:51:01;96813.47;;;10.12;100.00
10921;BME280;5513;50.580;8.818;2023-03-14T05:53:32;96801.03;;;10.04;100.00
10921;BME280;5513;50.580;8.818;2023-03-14T05:56:01;96796.94;;;10.10;100.00
10921;BME280;5513;50.580;8.818;2023-03-14T05:58:29;96789.72;;;9.94;100.00
10921;BME280;5513;50.580;8.818;2023-03-14T06:00:57;96795.22;;;10.01;100.00
10921;BME280;5513;50.580;8.818;2023-03-14T06:03:29;96783.56;;;9.94;100.00
10921;BME280;5513;50.580;8.818;2023-03-14T06:05:58;96780.00;;;10.03;100.00
10921;BME280;5513;50.580;8.818;2023-03-14T06:08:26;96780.34;;;10.00;100.00
10921;BME280;5513;50.580;8.818;2023-03-14T06:10:58;96781.06;;;10.10;100.00
10921;BME280;5513;50.580;8.818;2023-03-14T06:13:26;96774.88;;;10.01;100.00
10921;BME280;5513;50.580;8.818;2023-03-14T06:15:55;96778.59;;;10.09;100.00
10921;BME280;5513;50.580;8.818;2023-03-14T06:18:23;96770.31;;;10.12;100.00
10921;BME280;5513;50.580;8.818;2023-03-14T06:20:54;96785.53;;;10.10;100.00
10921;BME280;5513;50.580;8.818;2023-03-14T06:23:23;96773.97;;;10.11;100.00
10921;BME280;5513;50.580;8.818;2023-03-14T06:25:55;96786.03;;;10.13;100.00
10921;BME280;5513;50.580;8.818;2023-03-14T06:28:26;96788.78;;;10.03;100.00
10921;BME280;5513;50.580;8.818;2023-03-14T06:30:55;96782.13;;;10.17;100.00
10921;BME280;5513;50.580;8.818;2023-03-14T06:33:25;96778.84;;;9.97;100.00
10921;BME280;5513;50.580;8.818;2023-03-14T06:35:53;96794.16;;;9.94;100.00
10921;BME280;5513;50.580;8.818;2023-03-14T06:38:22;96794.38;;;10.00;100.00
10921;BME280;5513;50.580;8.818;2023-03-14T06:40:51;96791.81;;;9.91;100.00
10921;BME280;5513;50.580;8.818;2023-03-14T06:43:19;96784.94;;;9.98;100.00
10921;BME280;5513;50.580;8.818;2023-03-14T06:45:49;96795.09;;;9.85;100.00
10921;BME280;5513;50.580;8.818;2023-03-14T06:48:18;96798.69;;;9.84;100.00
10921;BME280;5513;50.580;8.818;2023-03-14T06:50:48;96795.53;;;9.80;100.00
10921;BME280;5513;50.580;8.818;2023-03-14T06:53:17;96798.41;;;9.87;100.00
10921;BME280;5513;50.580;8.818;2023-03-14T06:55:45;96803.84;;;9.85;100.00
10921;BME280;5513;50.580;8.818;2023-03-14T06:58:15;96812.75;;;9.84;100.00
10921;BME280;5513;50.580;8.818;2023-03-14T07:00:44;96807.00;;;9.89;100.00
10921;BME280;5513;50.580;8.818;2023-03-14T07:03:14;96802.16;;;9.84;100.00
10921;BME280;5513;50.580;8.818;2023-03-14T07:05:44;96800.31;;;9.77;100.00
10921;BME280;5513;50.580;8.818;2023-03-14T07:08:13;96812.13;;;9.90;100.00
10921;BME280;5513;50.580;8.818;2023-03-14T07:10:42;96815.31;;;9.94;100.00
10921;BME280;5513;50.580;8.818;2023-03-14T07:13:12;96809.06;;;9.95;100.00
10921;BME280;5513;50.580;8.818;2023-03-14T07:15:40;96800.50;;;10.01;100.00
10921;BME280;5513;50.580;8.818;2023-03-14T07:18:14;96810.63;;;10.06;100.00
10921;BME280;5513;50.580;8.818;2023-03-14T07:20:44;96801.03;;;10.04;100.00
10921;BME280;5513;50.580;8.818;2023-03-14T07:23:18;96812.44;;;10.05;100.00
10921;BME280;5513;50.580;8.818;2023-03-14T07:25:46;96807.00;;;10.07;100.00
10921;BME280;5513;50.580;8.818;2023-03-14T07:28:14;96801.41;;;10.10;100.00
10921;BME280;5513;50.580;8.818;2023-03-14T07:30:46;96786.34;;;10.10;100.00
10921;BME280;5513;50.580;8.818;2023-03-14T07:33:15;96784.38;;;10.12;100.00
10921;BME280;5513;50.580;8.818;2023-03-14T07:35:43;96784.75;;;10.17;100.00
10921;BME280;5513;50.580;8.818;2023-03-14T07:38:12;96789.16;;;10.26;100.00
10921;BME280;5513;50.580;8.818;2023-03-14T07:40:41;96790.44;;;10.22;100.00
10921;BME280;5513;50.580;8.818;2023-03-14T07:43:09;96794.63;;;10.25;100.00
10921;BME280;5513;50.580;8.818;2023-03-14T07:45:37;96785.44;;;10.37;100.00
10921;BME280;5513;50.580;8.818;2023-03-14T07:48:08;96785.22;;;10.30;100.00
10921;BME280;5513;50.580;8.818;2023-03-14T07:50:38;96777.81;;;10.34;100.00
10921;BME280;5513;50.580;8.818;2023-03-14T07:53:07;96778.47;;;10.36;100.00
10921;BME280;5513;50.580;8.818;2023-03-14T07:55:36;96789.31;;;10.25;100.00
10921;BME280;5513;50.580;8.818;2023-03-14T07:58:04;96788.25;;;10.36;100.00
10921;BME280;5513;50.580;8.818;2023-03-14T08:00:33;96790.06;;;10.35;100.00
10921;BME280;5513;50.580;8.818;2023-03-14T08:03:01;96786.69;;;10.25;100.00
10921;BME280;5513;50.580;8.818;2023-03-14T08:05:30;96788.34;;;10.26;100.00
10921;BME280;5513;50.580;8.818;2023-03-14T08:08:00;96790.97;;;10.26;100.00
10921;BME280;5513;50.580;8.818;2023-03-14T08:10:30;96778.94;;;10.31;100.00
10921;BME280;5513;50.580;8.818;2023-03-14T08:13:00;96788.91;;;10.38;100.00
10921;BME280;5513;50.580;8.818;2023-03-14T08:15:30;96784.22;;;10.31;100.00
10921;BME280;5513;50.580;8.818;2023-03-14T08:17:58;96791.66;;;10.28;100.00
10921;BME280;5513;50.580;8.818;2023-03-14T08:20:29;96790.50;;;10.13;100.00
10921;BME280;5513;50.580;8.818;2023-03-14T08:23:03;96790.97;;;10.26;100.00
10921;BME280;5513;50.580;8.818;2023-03-14T08:25:34;96785.97;;;10.23;100.00
10921;BME280;5513;50.580;8.818;2023-03-14T08:28:03;96785.59;;;10.36;100.00
10921;BME280;5513;50.580;8.818;2023-03-14T08:30:32;96780.19;;;10.45;100.00
10921;BME280;5513;50.580;8.818;2023-03-14T08:33:01;96785.81;;;10.42;100.00
10921;BME280;5513;50.580;8.818;2023-03-14T08:35:31;96783.19;;;10.50;100.00
10921;BME280;5513;50.580;8.818;2023-03-14T08:38:01;96774.63;;;10.56;100.00
10921;BME280;5513;50.580;8.818;2023-03-14T08:40:30;96788.06;;;10.63;100.00
10921;BME280;5513;50.580;8.818;2023-03-14T08:42:59;96781.97;;;10.63;100.00
10921;BME280;5513;50.580;8.818;2023-03-14T08:45:28;96788.75;;;10.65;100.00
10921;BME280;5513;50.580;8.818;2023-03-14T08:47:58;96790.41;;;10.66;100.00
10921;BME280;5513;50.580;8.818;2023-03-14T08:50:26;96784.44;;;10.64;100.00
10921;BME280;5513;50.580;8.818;2023-03-14T08:52:55;96781.97;;;10.71;100.00
10921;BME280;5513;50.580;8.818;2023-03-14T08:55:27;96786.03;;;10.83;100.00
10921;BME280;5513;50.580;8.818;2023-03-14T08:57:58;96788.63;;;10.75;100.00
10921;BME280;5513;50.580;8.818;2023-03-14T09:00:26;96799.00;;;10.94;100.00
10921;BME280;5513;50.580;8.818;2023-03-14T09:02:57;96802.47;;;10.95;100.00
10921;BME280;5513;50.580;8.818;2023-03-14T09:05:26;96796.81;;;10.89;100.00
10921;BME280;5513;50.580;8.818;2023-03-14T09:07:54;96799.31;;;10.99;100.00
10921;BME280;5513;50.580;8.818;2023-03-14T09:10:24;96788.97;;;11.14;100.00
10921;BME280;5513;50.580;8.818;2023-03-14T09:12:55;96786.97;;;11.16;100.00
10921;BME280;5513;50.580;8.818;2023-03-14T09:15:27;96798.44;;;11.25;100.00
10921;BME280;5513;50.580;8.818;2023-03-14T09:17:55;96795.59;;;11.18;100.00
10921;BME280;5513;50.580;8.818;2023-03-14T09:20:23;96800.66;;;10.95;100.00
10921;BME280;5513;50.580;8.818;2023-03-14T09:22:52;96803.78;;;10.99;100.00
10921;BME280;5513;50.580;8.818;2023-03-14T09:25:20;96810.03;;;10.81;100.00
10921;BME280;5513;50.580;8.818;2023-03-14T09:27:49;96815.72;;;10.69;100.00
10921;BME280;5513;50.580;8.818;2023-03-14T09:30:18;96822.31;;;10.65;100.00
10921;BME280;5513;50.580;8.818;2023-03-14T09:32:47;96831.38;;;10.54;100.00
10921;BME280;5513;50.580;8.818;2023-03-14T09:35:16;96830.16;;;10.48;100.00
10921;BME280;5513;50.580;8.818;2023-03-14T09:37:44;96830.16;;;10.48;100.00
10921;BME280;5513;50.580;8.818;2023-03-14T09:40:15;96824.97;;;10.39;100.00
10921;BME280;5513;50.580;8.818;2023-03-14T09:42:44;96828.41;;;10.57;100.00
10921;BME280;5513;50.580;8.818;2023-03-14T09:45:17;96827.63;;;10.65;100.00
10921;BME280;5513;50.580;8.818;2023-03-14T09:47:51;96829.72;;;10.61;100.00
10921;BME280;5513;50.580;8.818;2023-03-14T09:50:26;96830.09;;;10.66;100.00
10921;BME280;5513;50.580;8.818;2023-03-14T09:53:02;96834.91;;;10.71;100.00
10921;BME280;5513;50.580;8.818;2023-03-14T09:55:31;96837.72;;;10.69;100.00
10921;BME280;5513;50.580;8.818;2023-03-14T09:58:06;96834.75;;;10.64;100.00
10921;BME280;5513;50.580;8.818;2023-03-14T10:00:38;96829.34;;;10.74;100.00
10921;BME280;5513;50.580;8.818;2023-03-14T10:03:22;96839.09;;;10.73;100.00
10921;BME280;5513;50.580;8.818;2023-03-14T10:05:52;96843.50;;;10.65;100.00
10921;BME280;5513;50.580;8.818;2023-03-14T10:08:22;96840.47;;;10.85;100.00
10921;BME280;5513;50.580;8.818;2023-03-14T10:10:51;96852.72;;;10.86;100.00
10921;BME280;5513;50.580;8.818;2023-03-14T10:13:22;96843.97;;;10.86;100.00
10921;BME280;5513;50.580;8.818;2023-03-14T10:15:54;96852.28;;;10.99;100.00
10921;BME280;5513;50.580;8.818;2023-03-14T10:18:24;96834.63;;;11.08;100.00
10921;BME280;5513;50.580;8.818;2023-03-14T10:21:05;96830.69;;;11.12;100.00
10921;BME280;5513;50.580;8.818;2023-03-14T10:23:35;96830.03;;;11.10;100.00
10921;BME280;5513;50.580;8.818;2023-03-14T10:26:07;96834.94;;;11.05;100.00
10921;BME280;5513;50.580;8.818;2023-03-14T10:28:44;96825.69;;;11.09;100.00
10921;BME280;5513;50.580;8.818;2023-03-14T10:31:13;96835.25;;;10.94;100.00
10921;BME280;5513;50.580;8.818;2023-03-14T10:33:57;96850.34;;;10.75;100.00
10921;BME280;5513;50.580;8.818;2023-03-14T10:36:29;96846.81;;;10.67;100.00
10921;BME280;5513;50.580;8.818;2023-03-14T10:39:16;96856.59;;;10.66;100.00
10921;BME280;5513;50.580;8.818;2023-03-14T10:41:52;96866.44;;;10.56;100.00
10921;BME280;5513;50.580;8.818;2023-03-14T10:44:24;96842.72;;;10.72;100.00
10921;BME280;5513;50.580;8.818;2023-03-14T10:46:59;96831.53;;;10.86;100.00
10921;BME280;5513;50.580;8.818;2023-03-14T10:49:31;96836.72;;;10.96;100.00
10921;BME280;5513;50.580;8.818;2023-03-14T10:52:12;96836.13;;;11.02;100.00
10921;BME280;5513;50.580;8.818;2023-03-14T10:54:46;96826.84;;;11.06;100.00
10921;BME280;5513;50.580;8.818;2023-03-14T10:57:14;96838.28;;;11.07;100.00
10921;BME280;5513;50.580;8.818;2023-03-14T10:59:43;96843.41;;;11.08;100.00
10921;BME280;5513;50.580;8.818;2023-03-14T11:02:25;96839.25;;;11.06;100.00
10921;BME280;5513;50.580;8.818;2023-03-14T11:05:04;96840.75;;;11.00;100.00
10921;BME280;5513;50.580;8.818;2023-03-14T11:07:42;96847.59;;;10.85;100.00
10921;BME280;5513;50.580;8.818;2023-03-14T11:10:20;96851.13;;;10.68;100.00
10921;BME280;5513;50.580;8.818;2023-03-14T11:13:08;96847.09;;;10.81;100.00
10921;BME280;5513;50.580;8.818;2023-03-14T11:15:48;96845.81;;;10.94;100.00
10921;BME280;5513;50.580;8.818;2023-03-14T11:18:36;96858.63;;;11.06;100.00
10921;BME280;5513;50.580;8.818;2023-03-14T11:21:15;96858.25;;;10.93;100.00
10921;BME280;5513;50.580;8.818;2023-03-14T11:23:52;96863.22;;;10.96;100.00
10921;BME280;5513;50.580;8.818;2023-03-14T11:26:33;96861.28;;;11.06;100.00
10921;BME280;5513;50.580;8.818;2023-03-14T11:29:13;96851.28;;;10.92;100.00
10921;BME280;5513;50.580;8.818;2023-03-14T11:31:47;96867.53;;;10.97;100.00
10921;BME280;5513;50.580;8.818;2023-03-14T11:34:19;96867.13;;;10.84;100.00
10921;BME280;5513;50.580;8.818;2023-03-14T11:36:59;96873.59;;;10.89;100.00
10921;BME280;5513;50.580;8.818;2023-03-14T11:39:36;96880.25;;;10.94;100.00
10921;BME280;5513;50.580;8.818;2023-03-14T11:42:11;96876.94;;;10.66;100.00
10921;BME280;5513;50.580;8.818;2023-03-14T11:44:45;96898.44;;;10.63;100.00
10921;BME280;5513;50.580;8.818;2023-03-14T11:47:18;96907.44;;;10.52;100.00
10921;BME280;5513;50.580;8.818;2023-03-14T11:49:51;96914.41;;;10.53;100.00
10921;BME280;5513;50.580;8.818;2023-03-14T11:52:27;96911.34;;;10.48;100.00
10921;BME280;5513;50.580;8.818;2023-03-14T11:55:00;96936.16;;;10.65;100.00
10921;BME280;5513;50.580;8.818;2023-03-14T11:57:30;96956.34;;;10.48;100.00
10921;BME280;5513;50.580;8.818;2023-03-14T12:00:02;96971.94;;;9.51;100.00
10921;BME280;5513;50.580;8.818;2023-03-14T12:02:38;96974.75;;;9.49;100.00
10921;BME280;5513;50.580;8.818;2023-03-14T12:08:32;96978.06;;;9.51;100.00
10921;BME280;5513;50.580;8.818;2023-03-14T12:11:05;96970.28;;;9.50;100.00
10921;BME280;5513;50.580;8.818;2023-03-14T12:13:39;96984.72;;;9.55;100.00
10921;BME280;5513;50.580;8.818;2023-03-14T12:16:35;96968.34;;;9.42;100.00
10921;BME280;5513;50.580;8.818;2023-03-14T12:22:00;96982.88;;;9.28;100.00
10921;BME280;5513;50.580;8.818;2023-03-14T12:24:34;97007.34;;;9.30;100.00
10921;BME280;5513;50.580;8.818;2023-03-14T12:27:05;97008.88;;;9.23;100.00
10921;BME280;5513;50.580;8.818;2023-03-14T12:30:00;97007.66;;;9.17;100.00
10921;BME280;5513;50.580;8.818;2023-03-14T12:32:32;97028.91;;;9.16;100.00
10921;BME280;5513;50.580;8.818;2023-03-14T12:35:30;97030.19;;;9.02;100.00
10921;BME280;5513;50.580;8.818;2023-03-14T12:38:03;97041.44;;;8.95;100.00
10921;BME280;5513;50.580;8.818;2023-03-14T12:40:38;97043.38;;;8.93;100.00
10921;BME280;5513;50.580;8.818;2023-03-14T12:43:24;97056.03;;;8.89;100.00
10921;BME280;5513;50.580;8.818;2023-03-14T12:49:03;97071.88;;;8.89;100.00
10921;BME280;5513;50.580;8.818;2023-03-14T12:51:35;97060.59;;;8.77;100.00
10921;BME280;5513;50.580;8.818;2023-03-14T12:57:22;97065.63;;;8.71;100.00
10921;BME280;5513;50.580;8.818;2023-03-14T12:59:57;97073.41;;;8.72;100.00
10921;BME280;5513;50.580;8.818;2023-03-14T13:02:27;97089.94;;;8.84;100.00
10921;BME280;5513;50.580;8.818;2023-03-14T13:05:04;97092.84;;;9.00;100.00
10921;BME280;5513;50.580;8.818;2023-03-14T13:08:02;97099.50;;;9.04;100.00
10921;BME280;5513;50.580;8.818;2023-03-14T13:10:40;97114.25;;;9.07;100.00
10921;BME280;5513;50.580;8.818;2023-03-14T13:13:26;97119.13;;;9.11;100.00
10921;BME280;5513;50.580;8.818;2023-03-14T13:15:57;97127.72;;;9.23;100.00
10921;BME280;5513;50.580;8.818;2023-03-14T13:18:34;97132.59;;;9.18;100.00
10921;BME280;5513;50.580;8.818;2023-03-14T13:21:06;97146.22;;;9.13;100.00
10921;BME280;5513;50.580;8.818;2023-03-14T13:23:55;97152.75;;;9.09;100.00
10921;BME280;5513;50.580;8.818;2023-03-14T13:26:32;97159.53;;;8.93;100.00
10921;BME280;5513;50.580;8.818;2023-03-14T13:29:15;97211.66;;;8.91;100.00
10921;BME280;5513;50.580;8.818;2023-03-14T13:31:46;97181.09;;;8.88;100.00
10921;BME280;5513;50.580;8.818;2023-03-14T13:34:15;97175.38;;;8.93;100.00
10921;BME280;5513;50.580;8.818;2023-03-14T13:36:44;97187.59;;;8.94;100.00
10921;BME280;5513;50.580;8.818;2023-03-14T13:39:18;97226.50;;;8.92;100.00